Etusivu
METAR-TAF:

METAR-TAF

Lentoasemat :

Kärdlan lentoasema

Kärdla, Viro

Leveyspiiri: 58-59N, Pituuspiiri: 022-49E, korkeus merenpinnasta: 5 m

Tämänhetkinen sää

Tämä raportti tehtiin 5 tuntia ja 29 minuuttia sitten, kello 14.50 UTC
Tuuli 6 kn idästä
Lämpötila 15°C
Kosteus 44%
Ilmanpaine 1024 hPa
Näkyvyys 10 km tai enemmän
ei pilviä alle 1500 m:ssä eikä cumulonimbus-pilviä

METAR: EEKA 241450Z 09006KT CAVOK 15/03 Q1024

Aika: 23:19 (20:19 UTC)

Sääennuste

Tämä raportti tehtiin 8 tuntia ja 19 minuuttia sitten, kello 12.00 UTC
Ennuste voimassa 24. päivästä klo 13 UTC - 24. päivään klo 19 UTC
Tuuli 12 kn kaakosta
Näkyvyys 10 km tai enemmän
ei pilviä alle 1500 m:ssä eikä cumulonimbus-pilviä
Ajoittain
24. päivästä klo 14 UTC - 24. päivään klo 19 UTC
Tuuli 12 kn idästä/koillisesta

TAF: EEKA 241200Z 2413/2419 13012KT CAVOK TEMPO 2414/2419 06012KT

Säähavainnot ja -ennusteet yli 4000 lentoasemalta (METAR- ja TAF-raportit).

Käytössä olevat sääasemat on merkitty karttaan keltaisilla ja punaisilla pisteillä.

Aseta hiiri pisteen päälle nähdäksesi sääaseman nimen.

Klikkaa sitten nähdäksesi säähavainnot ja -ennusteet.

Kartan vaihtaminen: klikkaa mustalla rastilla varustettuja vihreitä pisteitä, niin voit zoomata sisään; viivalla varustettua vihreää pistettä, niin voit zoomata ulos tai vihreitä nuolia, niin pääset viereisille kartoille.


METAR-TAF: